createdAt,value
2022-08-19T00:06:37.675Z,17.08
2022-08-19T00:21:34.227Z,16.97
2022-08-19T00:36:30.318Z,16.72
2022-08-19T00:51:26.107Z,16.75
2022-08-19T01:06:23.004Z,16.56
2022-08-19T01:21:19.443Z,16.51
2022-08-19T01:36:15.860Z,16.53
2022-08-19T01:51:12.110Z,16.51
2022-08-19T02:06:08.676Z,16.36
2022-08-19T02:21:04.887Z,16.26
2022-08-19T02:36:01.105Z,16.02
2022-08-19T02:50:56.581Z,16.18
2022-08-19T03:05:57.037Z,16.1
2022-08-19T03:20:48.239Z,16.02
2022-08-19T03:35:44.306Z,15.94
2022-08-19T03:50:40.318Z,15.78
2022-08-19T04:05:36.871Z,15.67
2022-08-19T04:20:32.918Z,15.54
2022-08-19T04:35:29.031Z,15.53
2022-08-19T05:05:21.746Z,15.93
2022-08-19T05:20:17.995Z,16.39
2022-08-19T05:35:14.384Z,16.79
2022-08-19T05:50:10.683Z,17.52
2022-08-19T06:05:07.161Z,17.92
2022-08-19T06:20:03.483Z,18.55
2022-08-19T06:35:00.040Z,18.97
2022-08-19T06:49:57.013Z,19.25
2022-08-19T07:04:53.265Z,19.51
2022-08-19T07:19:49.653Z,20.62
2022-08-19T07:34:46.606Z,21.44
2022-08-19T07:49:43.400Z,22.1
2022-08-19T08:04:40.290Z,22.87
2022-08-19T08:19:36.942Z,23.33
2022-08-19T08:34:33.819Z,24.37
2022-08-19T08:49:29.919Z,25.31
2022-08-19T09:04:27.153Z,25.78
2022-08-19T09:19:22.686Z,24.69
2022-08-19T09:34:20.830Z,25.62
2022-08-19T09:49:16.346Z,25.32
2022-08-19T10:04:14.858Z,25.03
2022-08-19T10:19:09.837Z,25.67
2022-08-19T10:34:06.184Z,25.4
2022-08-19T10:49:03.057Z,28.31
2022-08-19T11:04:00.220Z,26.33
2022-08-19T11:18:56.934Z,28.42
2022-08-19T11:33:54.444Z,26.94
2022-08-19T11:48:50.767Z,28.37
2022-08-19T12:03:47.625Z,26.33
2022-08-19T12:18:43.815Z,28.58
2022-08-19T12:33:40.777Z,28.16
2022-08-19T12:48:37.186Z,26.97
2022-08-19T13:03:35.503Z,28.03
2022-08-19T13:18:29.431Z,27.53
2022-08-19T13:33:25.492Z,29.25
2022-08-19T13:48:21.499Z,27.8
2022-08-19T14:03:17.296Z,27.39
2022-08-19T14:18:12.752Z,27.83
2022-08-19T14:33:08.482Z,27.43
2022-08-19T14:48:03.988Z,27.76
2022-08-19T15:03:00.248Z,27.72
2022-08-19T15:17:56.431Z,27.62
2022-08-19T15:32:52.060Z,27.39
2022-08-19T15:47:47.995Z,27.3
2022-08-19T16:02:43.893Z,27.12
2022-08-19T16:17:39.817Z,26.67
2022-08-19T16:32:36.069Z,26.8
2022-08-19T16:47:32.271Z,26.06
2022-08-19T17:02:29.826Z,26.19
2022-08-19T17:17:28.409Z,25.79
2022-08-19T17:32:24.780Z,25.31
2022-08-19T17:47:16.218Z,24.93
2022-08-19T18:02:12.098Z,24.55
2022-08-19T18:17:07.891Z,24.16
2022-08-19T18:32:03.554Z,23.83
2022-08-19T18:46:59.374Z,23.49
2022-08-19T19:01:55.009Z,23.22
2022-08-19T19:16:50.594Z,22.85
2022-08-19T19:31:46.543Z,22.5
2022-08-19T19:46:42.851Z,22.1
2022-08-19T20:01:39.226Z,21.61
2022-08-19T20:16:35.154Z,21.64
2022-08-19T20:31:30.982Z,21.69
2022-08-19T20:46:26.983Z,22.19
2022-08-19T22:01:08.888Z,21.82
2022-08-19T22:16:05.117Z,21.72
2022-08-19T22:31:00.906Z,21.55
2022-08-19T22:45:56.991Z,21
2022-08-19T23:00:52.958Z,20.33
2022-08-19T23:15:49.073Z,20.17
2022-08-19T23:30:44.924Z,19.94
2022-08-19T23:45:50.921Z,19.83
